createdAt,value
2018-08-23T00:02:33.209Z,29.83
2018-08-23T00:05:06.220Z,28.23
2018-08-23T00:07:40.227Z,31.03
2018-08-23T00:10:13.054Z,29.53
2018-08-23T00:12:51.585Z,29.93
2018-08-23T00:15:27.333Z,22.90
2018-08-23T00:17:59.979Z,28.67
2018-08-23T00:20:38.511Z,30.80
2018-08-23T00:23:10.967Z,31.60
2018-08-23T00:25:44.525Z,29.20
2018-08-23T00:28:17.518Z,26.53
2018-08-23T00:30:51.289Z,30.13
2018-08-23T00:33:24.052Z,30.70
2018-08-23T00:35:56.484Z,28.50
2018-08-23T00:38:29.788Z,27.27
2018-08-23T00:41:02.994Z,25.03
2018-08-23T00:43:35.508Z,34.05
2018-08-23T00:46:16.069Z,30.00
2018-08-23T00:48:48.730Z,32.03
2018-08-23T00:51:21.542Z,26.60
2018-08-23T00:53:59.887Z,29.33
2018-08-23T00:56:32.477Z,28.00
2018-08-23T00:59:05.349Z,36.13
2018-08-23T01:01:38.473Z,38.63
2018-08-23T01:04:44.472Z,38.77
2018-08-23T01:07:22.349Z,42.63
2018-08-23T01:09:57.825Z,39.00
2018-08-23T01:12:48.758Z,32.93
2018-08-23T01:15:24.044Z,36.60
2018-08-23T01:18:16.406Z,43.33
2018-08-23T01:20:51.506Z,36.30
2018-08-23T01:23:25.749Z,46.93
2018-08-23T01:26:03.920Z,41.70
2018-08-23T01:28:37.608Z,38.40
2018-08-23T01:31:28.252Z,34.13
2018-08-23T01:34:01.665Z,36.10
2018-08-23T01:36:34.612Z,36.73
2018-08-23T01:39:11.301Z,33.33
2018-08-23T01:41:45.910Z,37.07
2018-08-23T01:44:41.131Z,31.83
2018-08-23T01:47:13.638Z,37.40
2018-08-23T01:49:46.621Z,41.37
2018-08-23T01:52:20.896Z,35.30
2018-08-23T01:54:56.602Z,28.97
2018-08-23T01:57:36.098Z,38.23
2018-08-23T02:00:12.129Z,33.53
2018-08-23T02:02:47.687Z,40.93
2018-08-23T02:05:20.931Z,55.47
2018-08-23T02:07:56.688Z,49.20
2018-08-23T02:10:30.405Z,40.90
2018-08-23T02:13:24.001Z,33.73
2018-08-23T02:16:01.883Z,31.47
2018-08-23T02:18:34.402Z,34.57
2018-08-23T02:21:08.863Z,66.32
2018-08-23T02:23:50.360Z,51.07
2018-08-23T02:26:22.619Z,35.33
2018-08-23T02:28:55.852Z,39.57
2018-08-23T02:31:28.616Z,40.83
2018-08-23T02:34:01.893Z,37.73
2018-08-23T02:36:34.674Z,39.70
2018-08-23T02:39:14.423Z,41.37
2018-08-23T02:42:00.802Z,48.53
2018-08-23T02:44:33.858Z,50.37
2018-08-23T02:47:09.552Z,56.70
2018-08-23T02:49:44.136Z,54.07
2018-08-23T02:52:18.817Z,51.40
2018-08-23T02:54:51.674Z,48.57
2018-08-23T02:57:24.997Z,60.03
2018-08-23T02:59:58.258Z,56.30
2018-08-23T03:02:32.040Z,53.63
2018-08-23T03:05:22.434Z,50.83
2018-08-23T03:07:56.155Z,47.10
2018-08-23T03:10:29.120Z,59.25
2018-08-23T03:13:02.813Z,39.17
2018-08-23T03:15:35.597Z,39.53
2018-08-23T03:18:08.948Z,35.93
2018-08-23T03:20:43.195Z,46.90
2018-08-23T03:23:16.127Z,38.40
2018-08-23T03:25:48.748Z,46.07
2018-08-23T03:28:22.076Z,44.93
2018-08-23T03:31:03.010Z,47.57
2018-08-23T03:33:36.029Z,46.57
2018-08-23T03:36:10.259Z,50.13
2018-08-23T03:38:44.438Z,52.23
2018-08-23T03:41:18.025Z,64.07
2018-08-23T03:43:57.459Z,55.30
2018-08-23T03:46:54.814Z,51.53
2018-08-23T03:49:42.964Z,49.07
2018-08-23T03:52:21.638Z,52.27
2018-08-23T03:55:01.353Z,58.42
2018-08-23T03:57:40.630Z,41.20
2018-08-23T04:00:39.524Z,47.47
2018-08-23T04:03:17.041Z,49.27
2018-08-23T04:05:49.771Z,53.65
2018-08-23T04:08:22.714Z,48.40
2018-08-23T04:10:56.104Z,37.93
2018-08-23T04:13:28.772Z,50.10
2018-08-23T04:16:03.767Z,47.50
2018-08-23T04:18:37.536Z,53.20
2018-08-23T04:21:10.165Z,56.70
2018-08-23T04:23:43.276Z,51.87
2018-08-23T04:26:18.509Z,50.00
2018-08-23T04:28:51.750Z,49.10
2018-08-23T04:31:26.272Z,50.00
2018-08-23T04:34:06.573Z,44.57
2018-08-23T04:36:40.424Z,51.07
2018-08-23T04:39:14.443Z,49.80
2018-08-23T04:41:49.747Z,62.15
2018-08-23T04:44:23.729Z,49.10
2018-08-23T04:46:58.200Z,48.83
2018-08-23T04:49:30.922Z,49.63
2018-08-23T04:52:05.102Z,46.67
2018-08-23T04:54:38.540Z,48.30
2018-08-23T04:57:12.222Z,47.10
2018-08-23T04:59:44.768Z,54.70
2018-08-23T05:02:20.124Z,49.20
2018-08-23T05:04:53.098Z,52.37
2018-08-23T05:07:25.623Z,55.77
2018-08-23T05:09:58.493Z,45.67
2018-08-23T05:12:31.312Z,49.92
2018-08-23T05:15:05.984Z,61.80
2018-08-23T05:17:38.812Z,56.23
2018-08-23T05:20:11.348Z,54.87
2018-08-23T05:22:53.396Z,45.87
2018-08-23T05:25:27.362Z,52.47
2018-08-23T05:28:20.249Z,74.73
2018-08-23T05:30:54.208Z,61.97
2018-08-23T05:33:26.836Z,50.07
2018-08-23T05:36:14.538Z,51.40
2018-08-23T05:38:48.265Z,52.13
2018-08-23T05:41:20.906Z,55.60
2018-08-23T05:44:11.798Z,54.72
2018-08-23T05:47:00.205Z,53.00
2018-08-23T05:49:32.856Z,51.87
2018-08-23T05:52:08.828Z,57.25
2018-08-23T05:54:42.188Z,58.77
2018-08-23T05:57:17.321Z,52.40
2018-08-23T05:59:54.672Z,50.63
2018-08-23T06:02:27.474Z,53.17
2018-08-23T06:05:00.015Z,55.03
2018-08-23T06:07:32.773Z,56.40
2018-08-23T06:10:05.644Z,57.13
2018-08-23T06:12:38.121Z,47.53
2018-08-23T06:15:15.164Z,52.70
2018-08-23T06:17:47.685Z,46.50
2018-08-23T06:20:21.664Z,49.07
2018-08-23T06:22:55.591Z,48.33
2018-08-23T06:25:29.104Z,45.73
2018-08-23T06:28:14.912Z,51.97
2018-08-23T06:30:47.916Z,55.43
2018-08-23T06:33:37.840Z,63.17
2018-08-23T06:36:10.524Z,66.30
2018-08-23T06:38:59.425Z,73.23
2018-08-23T06:41:32.295Z,78.57
2018-08-23T06:44:06.331Z,80.32
2018-08-23T06:46:39.023Z,74.37
2018-08-23T06:49:11.837Z,70.87
2018-08-23T06:52:19.011Z,73.40
2018-08-23T06:54:52.062Z,72.65
2018-08-23T06:57:39.792Z,68.30
2018-08-23T07:00:22.542Z,62.80
2018-08-23T07:02:58.036Z,63.63
2018-08-23T07:05:31.845Z,70.63
2018-08-23T07:08:04.882Z,73.72
2018-08-23T07:10:37.586Z,72.07
2018-08-23T07:13:11.117Z,64.67
2018-08-23T07:15:58.951Z,65.13
2018-08-23T07:18:32.893Z,65.83
2018-08-23T07:21:07.012Z,63.13
2018-08-23T07:23:40.528Z,66.13
2018-08-23T07:26:13.818Z,61.37
2018-08-23T07:28:48.130Z,62.93
2018-08-23T07:31:20.730Z,64.37
2018-08-23T07:33:54.332Z,61.30
2018-08-23T07:36:30.750Z,60.97
2018-08-23T07:39:07.170Z,59.33
2018-08-23T07:41:39.714Z,58.70
2018-08-23T07:44:15.417Z,53.03
2018-08-23T07:46:47.825Z,60.12
2018-08-23T07:49:20.508Z,51.13
2018-08-23T07:51:53.435Z,56.07
2018-08-23T07:54:28.192Z,50.87
2018-08-23T07:57:01.634Z,50.23
2018-08-23T07:59:36.745Z,47.43
2018-08-23T08:02:14.388Z,48.53
2018-08-23T08:04:48.872Z,53.10
2018-08-23T08:07:33.420Z,50.03
2018-08-23T08:10:17.888Z,50.22
2018-08-23T08:12:53.377Z,41.23
2018-08-23T08:15:34.652Z,46.93
2018-08-23T08:18:16.461Z,41.63
2018-08-23T08:21:03.960Z,39.83
2018-08-23T08:23:36.772Z,33.00
2018-08-23T08:26:19.352Z,35.00
2018-08-23T08:29:00.752Z,36.57
2018-08-23T08:31:38.143Z,37.90
2018-08-23T08:34:14.061Z,42.13
2018-08-23T08:36:59.809Z,32.50
2018-08-23T08:39:38.115Z,35.28
2018-08-23T08:42:12.256Z,34.45
2018-08-23T08:44:52.534Z,31.12
2018-08-23T08:47:25.882Z,36.60
2018-08-23T08:50:03.163Z,34.77
2018-08-23T08:52:37.710Z,35.80
2018-08-23T08:55:13.795Z,33.30
2018-08-23T08:57:48.013Z,33.50
2018-08-23T09:00:48.549Z,31.10
2018-08-23T09:03:30.747Z,31.00
2018-08-23T09:06:18.576Z,29.23
2018-08-23T09:08:51.919Z,32.33
2018-08-23T09:11:28.962Z,33.10
2018-08-23T09:14:13.810Z,29.13
2018-08-23T09:16:47.161Z,31.83
2018-08-23T09:19:54.627Z,30.33
2018-08-23T09:22:34.796Z,25.43
2018-08-23T09:25:16.719Z,24.20
2018-08-23T09:27:50.667Z,22.83
2018-08-23T09:30:31.339Z,23.10
2018-08-23T09:33:21.964Z,26.45
2018-08-23T09:35:55.381Z,23.70
2018-08-23T09:38:30.889Z,26.73
2018-08-23T09:41:07.185Z,30.70
2018-08-23T09:43:41.881Z,23.67
2018-08-23T09:46:14.649Z,20.17
2018-08-23T09:48:50.522Z,18.03
2018-08-23T09:51:29.373Z,20.37
2018-08-23T09:54:04.917Z,20.23
2018-08-23T09:56:40.405Z,21.07
2018-08-23T09:59:16.815Z,20.23
2018-08-23T10:01:55.159Z,23.05
2018-08-23T10:04:34.386Z,21.20
2018-08-23T10:07:14.247Z,19.23
2018-08-23T10:09:53.648Z,17.87
2018-08-23T10:12:32.911Z,16.77
2018-08-23T10:15:12.940Z,16.93
2018-08-23T10:17:50.992Z,15.53
2018-08-23T10:20:31.661Z,16.43
2018-08-23T10:23:09.730Z,16.02
2018-08-23T10:25:51.502Z,15.60
2018-08-23T10:28:26.177Z,17.07
2018-08-23T10:30:59.536Z,16.23
2018-08-23T10:33:32.506Z,13.95
2018-08-23T10:36:07.171Z,12.83
2018-08-23T10:38:40.932Z,11.47
2018-08-23T10:41:15.558Z,10.50
2018-08-23T10:43:50.235Z,9.95
2018-08-23T10:46:23.402Z,10.53
2018-08-23T10:48:56.191Z,8.93
2018-08-23T10:51:29.771Z,9.67
2018-08-23T10:54:02.417Z,8.83
2018-08-23T10:56:37.322Z,6.90
2018-08-23T10:59:11.073Z,7.97
2018-08-23T11:01:46.072Z,8.53
2018-08-23T11:04:18.836Z,8.70
2018-08-23T11:06:57.734Z,7.33
2018-08-23T11:09:36.265Z,8.03
2018-08-23T11:12:29.660Z,6.20
2018-08-23T11:15:10.072Z,7.83
2018-08-23T11:17:50.465Z,7.70
2018-08-23T11:20:27.704Z,6.43
2018-08-23T11:23:01.745Z,6.00
2018-08-23T11:25:35.098Z,6.20
2018-08-23T11:28:13.935Z,6.30
2018-08-23T11:30:47.899Z,7.20
2018-08-23T11:33:27.073Z,6.00
2018-08-23T11:36:03.147Z,5.33
2018-08-23T11:38:36.628Z,5.03
2018-08-23T11:41:15.638Z,5.22
2018-08-23T11:43:49.246Z,5.10
2018-08-23T11:46:23.432Z,4.63
2018-08-23T11:48:57.380Z,5.12
2018-08-23T11:51:32.037Z,6.50
2018-08-23T11:54:06.081Z,6.10
2018-08-23T11:56:38.990Z,7.27
2018-08-23T11:59:13.010Z,7.93
2018-08-23T12:01:47.473Z,5.90
2018-08-23T12:04:21.673Z,6.83
2018-08-23T12:06:56.090Z,4.90
2018-08-23T12:09:33.805Z,5.40
2018-08-23T12:12:11.256Z,5.23
2018-08-23T12:14:53.907Z,5.23
2018-08-23T12:17:26.653Z,5.53
2018-08-23T12:20:03.943Z,4.53
2018-08-23T12:22:42.768Z,6.07
2018-08-23T12:25:16.071Z,6.07
2018-08-23T12:28:20.033Z,5.80
2018-08-23T12:30:54.159Z,6.20
2018-08-23T12:33:27.480Z,5.50
2018-08-23T12:36:06.944Z,5.60
2018-08-23T12:38:47.548Z,5.20
2018-08-23T12:41:25.964Z,5.17
2018-08-23T12:43:59.217Z,4.90
2018-08-23T12:46:31.790Z,4.30
2018-08-23T12:49:05.439Z,4.20
2018-08-23T12:51:42.740Z,3.67
2018-08-23T12:54:19.511Z,3.90
2018-08-23T12:56:52.334Z,5.30
2018-08-23T12:59:24.882Z,4.90
2018-08-23T13:01:57.649Z,4.10
2018-08-23T13:04:30.580Z,3.63
2018-08-23T13:07:03.183Z,4.17
2018-08-23T13:09:35.803Z,4.10
2018-08-23T13:12:10.062Z,5.23
2018-08-23T13:14:43.524Z,5.80
2018-08-23T13:17:20.849Z,4.97
2018-08-23T13:19:54.554Z,5.70
2018-08-23T13:22:34.072Z,6.53
2018-08-23T13:25:08.274Z,5.13
2018-08-23T13:27:43.312Z,6.13
2018-08-23T13:30:17.829Z,7.30
2018-08-23T13:32:50.732Z,6.53
2018-08-23T13:35:26.196Z,6.07
2018-08-23T13:37:59.976Z,6.67
2018-08-23T13:40:34.869Z,6.60
2018-08-23T13:43:08.189Z,5.70
2018-08-23T13:45:43.073Z,5.93
2018-08-23T13:48:18.033Z,5.27
2018-08-23T13:50:50.678Z,5.07
2018-08-23T13:53:24.856Z,5.83
2018-08-23T13:56:01.603Z,5.10
2018-08-23T13:58:34.301Z,5.90
2018-08-23T14:01:09.509Z,6.20
2018-08-23T14:03:45.942Z,6.97
2018-08-23T14:06:22.413Z,5.60
2018-08-23T14:09:01.041Z,6.68
2018-08-23T14:11:34.683Z,5.67
2018-08-23T14:14:08.474Z,6.12
2018-08-23T14:16:41.515Z,7.30
2018-08-23T14:19:19.323Z,6.80
2018-08-23T14:21:54.008Z,6.83
2018-08-23T14:24:29.001Z,7.40
2018-08-23T14:27:03.889Z,7.50
2018-08-23T14:29:38.311Z,7.30
2018-08-23T14:32:13.301Z,8.27
2018-08-23T14:34:47.068Z,7.17
2018-08-23T14:37:21.277Z,7.93
2018-08-23T14:39:54.938Z,8.10
2018-08-23T14:42:30.380Z,9.27
2018-08-23T14:45:06.261Z,9.20
2018-08-23T14:47:45.684Z,8.60
2018-08-23T14:50:19.170Z,7.90
2018-08-23T14:52:55.485Z,8.00
2018-08-23T14:55:35.601Z,8.10
2018-08-23T14:58:10.541Z,9.20
2018-08-23T15:00:46.789Z,8.23
2018-08-23T15:03:21.672Z,8.10
2018-08-23T15:06:02.791Z,9.43
2018-08-23T15:08:40.536Z,9.50
2018-08-23T15:11:15.462Z,9.13
2018-08-23T15:13:53.093Z,7.77
2018-08-23T15:16:26.317Z,7.57
2018-08-23T15:19:00.238Z,7.63
2018-08-23T15:21:35.322Z,9.63
2018-08-23T15:24:07.872Z,9.53
2018-08-23T15:26:41.189Z,8.50
2018-08-23T15:29:19.007Z,9.80
2018-08-23T15:31:53.532Z,9.53
2018-08-23T15:34:27.600Z,9.07
2018-08-23T15:37:04.432Z,10.10
2018-08-23T15:39:39.637Z,11.17
2018-08-23T15:42:13.065Z,10.30
2018-08-23T15:44:46.907Z,10.40
2018-08-23T15:47:20.976Z,8.47
2018-08-23T15:49:53.638Z,10.13
2018-08-23T15:52:28.435Z,10.13
2018-08-23T15:55:01.121Z,12.97
2018-08-23T15:57:34.976Z,11.40
2018-08-23T16:00:08.886Z,11.03
2018-08-23T16:02:41.502Z,9.40
2018-08-23T16:05:16.741Z,9.77
2018-08-23T16:07:50.554Z,9.40
2018-08-23T16:10:23.688Z,9.90
2018-08-23T16:13:01.241Z,11.40
2018-08-23T16:15:35.918Z,10.47
2018-08-23T16:18:15.453Z,9.90
2018-08-23T16:20:53.425Z,10.00
2018-08-23T16:23:26.774Z,10.40
2018-08-23T16:25:59.432Z,10.40
2018-08-23T16:28:33.208Z,9.50
2018-08-23T16:31:06.390Z,10.20
2018-08-23T16:33:41.559Z,8.17
2018-08-23T16:36:15.247Z,9.65
2018-08-23T16:38:51.722Z,8.40
2018-08-23T16:41:25.669Z,8.50
2018-08-23T16:43:59.553Z,9.30
2018-08-23T16:46:36.973Z,8.95
2018-08-23T16:49:11.461Z,8.47
2018-08-23T16:51:47.256Z,9.17
2018-08-23T16:54:20.901Z,8.05
2018-08-23T16:56:54.518Z,7.50
2018-08-23T16:59:28.341Z,7.37
2018-08-23T17:02:05.575Z,7.10
2018-08-23T17:04:45.785Z,7.53
2018-08-23T17:07:21.610Z,7.07
2018-08-23T17:09:59.165Z,5.87
2018-08-23T17:12:35.881Z,5.80
2018-08-23T17:15:16.484Z,5.37
2018-08-23T17:17:55.173Z,4.80
2018-08-23T17:20:31.188Z,5.30
2018-08-23T17:23:05.216Z,5.50
2018-08-23T17:25:40.030Z,5.20
2018-08-23T17:28:14.620Z,4.30
2018-08-23T17:30:51.890Z,4.73
2018-08-23T17:33:30.986Z,5.00
2018-08-23T17:36:03.737Z,4.40
2018-08-23T17:38:38.593Z,3.93
2018-08-23T17:41:21.360Z,3.80
2018-08-23T17:43:58.332Z,4.00
2018-08-23T17:46:32.954Z,3.97
2018-08-23T17:49:11.398Z,4.50
2018-08-23T17:51:46.020Z,4.40
2018-08-23T17:54:24.158Z,4.37
2018-08-23T17:56:59.773Z,5.23
2018-08-23T17:59:34.900Z,6.73
2018-08-23T18:02:11.814Z,6.57
2018-08-23T18:04:48.593Z,6.90
2018-08-23T18:07:24.145Z,6.35
2018-08-23T18:10:03.412Z,5.57
2018-08-23T18:12:41.595Z,5.27
2018-08-23T18:15:16.195Z,6.13
2018-08-23T18:17:53.936Z,5.50
2018-08-23T18:20:29.106Z,5.83
2018-08-23T18:23:05.297Z,5.87
2018-08-23T18:25:41.116Z,5.50
2018-08-23T18:28:18.587Z,5.80
2018-08-23T18:30:54.617Z,6.17
2018-08-23T18:33:29.109Z,5.30
2018-08-23T18:36:04.021Z,5.33
2018-08-23T18:38:38.816Z,4.77
2018-08-23T18:41:13.801Z,4.73
2018-08-23T18:43:46.945Z,5.70
2018-08-23T18:46:20.659Z,4.80
2018-08-23T18:48:58.256Z,4.63
2018-08-23T18:51:32.424Z,5.07
2018-08-23T18:54:18.169Z,4.60
2018-08-23T18:59:34.779Z,4.90
2018-08-23T19:02:09.260Z,4.27
2018-08-23T19:04:41.885Z,4.27
2018-08-23T19:07:21.832Z,4.30
2018-08-23T19:10:03.365Z,4.30
2018-08-23T19:12:35.909Z,4.10
2018-08-23T19:15:26.436Z,4.55
2018-08-23T19:18:06.543Z,4.10
2018-08-23T19:20:40.622Z,4.73
2018-08-23T19:23:15.791Z,4.73
2018-08-23T19:25:50.036Z,4.57
2018-08-23T19:28:29.297Z,3.80
2018-08-23T19:31:03.169Z,4.07
2018-08-23T19:33:39.967Z,4.73
2018-08-23T19:36:16.449Z,4.63
2018-08-23T19:38:50.564Z,4.53
2018-08-23T19:41:25.357Z,4.90
2018-08-23T19:44:00.537Z,4.37
2018-08-23T19:46:42.045Z,4.33
2018-08-23T19:49:20.100Z,4.00
2018-08-23T19:51:53.632Z,3.90
2018-08-23T19:54:35.688Z,3.90
2018-08-23T19:57:12.364Z,3.20
2018-08-23T19:59:49.388Z,3.30
2018-08-23T20:02:24.210Z,3.40
2018-08-23T20:04:58.401Z,3.40
2018-08-23T20:07:31.968Z,3.03
2018-08-23T20:10:09.726Z,3.50
2018-08-23T20:12:42.267Z,2.97
2018-08-23T20:15:23.946Z,3.00
2018-08-23T20:18:02.381Z,2.93
2018-08-23T20:20:35.574Z,3.10
2018-08-23T20:23:09.624Z,3.10
2018-08-23T20:25:43.325Z,2.33
2018-08-23T20:28:16.804Z,2.67
2018-08-23T20:31:02.621Z,2.73
2018-08-23T20:33:47.499Z,2.60
2018-08-23T20:36:35.689Z,2.60
2018-08-23T20:39:15.373Z,3.10
2018-08-23T20:41:51.091Z,2.60
2018-08-23T20:44:26.774Z,2.97
2018-08-23T20:47:07.789Z,2.67
2018-08-23T20:49:43.639Z,2.80
2018-08-23T20:52:17.452Z,2.67
2018-08-23T20:54:52.920Z,2.93
2018-08-23T20:57:26.819Z,2.72
2018-08-23T21:00:00.465Z,2.70
2018-08-23T21:02:41.055Z,2.65
2018-08-23T21:05:20.708Z,2.97
2018-08-23T21:07:58.042Z,2.50
2018-08-23T21:10:36.539Z,2.37
2018-08-23T21:13:15.817Z,2.67
2018-08-23T21:15:49.246Z,2.80
2018-08-23T21:18:23.329Z,2.47
2018-08-23T21:20:57.770Z,2.90
2018-08-23T21:23:33.580Z,3.10
2018-08-23T21:26:09.329Z,2.65
2018-08-23T21:28:42.254Z,2.90
2018-08-23T21:31:14.934Z,3.00
2018-08-23T21:33:48.558Z,3.20
2018-08-23T21:36:24.838Z,2.70
2018-08-23T21:38:58.593Z,2.70
2018-08-23T21:41:32.693Z,2.80
2018-08-23T21:44:07.101Z,2.90
2018-08-23T21:46:41.102Z,2.67
2018-08-23T21:49:14.148Z,2.73
2018-08-23T21:51:49.357Z,2.65
2018-08-23T21:54:21.905Z,2.65
2018-08-23T21:56:54.590Z,2.37
2018-08-23T21:59:34.800Z,2.93
2018-08-23T22:02:12.908Z,2.50
2018-08-23T22:04:52.194Z,2.80
2018-08-23T22:07:27.731Z,2.40
2018-08-23T22:10:00.486Z,2.40
2018-08-23T22:12:36.870Z,2.37
2018-08-23T22:15:10.222Z,2.87
2018-08-23T22:17:44.238Z,2.27
2018-08-23T22:20:18.219Z,2.50
2018-08-23T22:22:50.847Z,2.30
2018-08-23T22:25:24.583Z,2.07
2018-08-23T22:27:57.602Z,2.00
2018-08-23T22:30:30.921Z,2.37
2018-08-23T22:33:03.579Z,1.97
2018-08-23T22:35:38.293Z,2.00
2018-08-23T22:38:11.041Z,2.13
2018-08-23T22:40:44.262Z,2.20
2018-08-23T22:43:18.290Z,1.90
2018-08-23T22:45:50.859Z,2.00
2018-08-23T22:48:23.601Z,2.17
2018-08-23T22:50:57.342Z,1.80
2018-08-23T22:53:29.878Z,2.03
2018-08-23T22:56:02.958Z,1.87
2018-08-23T22:58:35.873Z,1.80
2018-08-23T23:01:08.495Z,1.73
2018-08-23T23:03:46.804Z,1.93
2018-08-23T23:06:19.472Z,1.53
2018-08-23T23:08:52.395Z,1.73
2018-08-23T23:11:24.881Z,1.90
2018-08-23T23:13:58.256Z,1.90
2018-08-23T23:16:32.359Z,2.22
2018-08-23T23:19:05.166Z,1.63
2018-08-23T23:21:37.707Z,1.90
2018-08-23T23:24:20.494Z,1.60
2018-08-23T23:26:54.093Z,2.13
2018-08-23T23:29:26.865Z,1.60
2018-08-23T23:32:00.846Z,1.80
2018-08-23T23:34:33.531Z,1.40
2018-08-23T23:37:09.790Z,1.90
2018-08-23T23:39:43.607Z,2.17
2018-08-23T23:42:18.902Z,1.53
2018-08-23T23:44:53.974Z,1.57
2018-08-23T23:47:26.615Z,1.70
2018-08-23T23:49:59.180Z,1.57
2018-08-23T23:52:34.403Z,1.60
2018-08-23T23:55:09.526Z,1.57
2018-08-23T23:57:47.409Z,1.50
